Time;durP1;ratioP1;P1;durP2;ratioP2;P2;SDS_P1;SDS_P2;PMS_P1;PMS_P2;Temp;Humidity;BMP_temperature;BMP_pressure;BME280_temperature;BME280_humidity;BME280_pressure;Samples;Min_cycle;Max_cycle;Signal;HPM_P1;HPM_P2
2021/07/03 00:00:56;;;;;;;;;;;14.80;99.90;;;;;;5037405;28;19920;-83
2021/07/03 00:03:21;;;;;;;;;;;14.90;99.90;;;;;;5036373;28;20311;-83
2021/07/03 00:05:47;;;;;;;;;;;14.80;99.90;;;;;;5033554;28;19967;-83
2021/07/03 00:08:12;;;;;;;;;;;14.80;99.90;;;;;;5036110;28;19940;-81
2021/07/03 00:10:39;;;;;;;;;;;14.80;99.90;;;;;;5036797;28;19958;-79
2021/07/03 00:13:04;;;;;;;;;;;14.70;99.90;;;;;;5032745;28;19932;-82
2021/07/03 00:15:30;;;;;;;;;;;14.60;99.90;;;;;;5035422;28;19913;-82
2021/07/03 00:17:57;;;;;;;;;;;14.60;99.90;;;;;;5037328;28;19914;-82
2021/07/03 00:20:23;;;;;;;;;;;14.60;99.90;;;;;;5034682;28;19924;-81
2021/07/03 00:22:49;;;;;;;;;;;14.50;99.90;;;;;;5035962;28;19917;-83
2021/07/03 00:25:15;;;;;;;;;;;14.50;99.90;;;;;;5027928;28;19913;-81
2021/07/03 00:27:41;;;;;;;;;;;14.60;99.90;;;;;;5037071;28;19920;-82
2021/07/03 00:30:07;;;;;;;;;;;14.60;99.90;;;;;;5020504;28;19910;-82
2021/07/03 00:32:33;;;;;;;;;;;14.60;99.90;;;;;;5018188;28;19924;-80
2021/07/03 00:34:59;;;;;;;;;;;14.70;99.90;;;;;;5036699;28;19921;-82
2021/07/03 00:37:24;;;;;;;;;;;14.70;99.90;;;;;;5035587;28;19921;-82
2021/07/03 00:39:50;;;;;;;;;;;14.70;99.90;;;;;;5035360;28;19948;-81
2021/07/03 00:42:15;;;;;;;;;;;14.60;99.90;;;;;;5036954;28;19955;-82
2021/07/03 00:44:41;;;;;;;;;;;14.60;99.90;;;;;;5036404;28;19921;-82
2021/07/03 00:47:08;;;;;;;;;;;14.50;99.90;;;;;;5036279;28;19913;-81
2021/07/03 00:49:34;;;;;;;;;;;14.30;99.90;;;;;;5034584;28;19924;-82
2021/07/03 00:52:00;;;;;;;;;;;14.30;99.90;;;;;;5033941;28;19920;-82
2021/07/03 00:54:27;;;;;;;;;;;14.30;99.90;;;;;;5019012;28;19909;-82
2021/07/03 00:57:02;;;;;;;;;;;14.30;99.90;;;;;;5017125;28;20312;-81
2021/07/03 00:59:29;;;;;;;;;;;14.30;99.90;;;;;;5017121;28;19920;-82
2021/07/03 01:01:54;;;;;;;;;;;14.30;99.90;;;;;;5035236;28;19917;-81
2021/07/03 01:04:20;;;;;;;;;;;14.30;99.90;;;;;;5036644;28;19982;-79
2021/07/03 01:06:45;;;;;;;;;;;14.30;99.90;;;;;;5035436;28;20004;-82
2021/07/03 01:09:11;;;;;;;;;;;14.30;99.90;;;;;;5034444;28;19916;-81
2021/07/03 01:11:36;;;;;;;;;;;14.30;99.90;;;;;;5036398;28;19913;-82
2021/07/03 01:14:02;;;;;;;;;;;14.30;99.90;;;;;;5035144;28;20007;-77
2021/07/03 01:16:29;;;;;;;;;;;14.30;99.90;;;;;;5036198;28;19944;-82
2021/07/03 01:18:54;;;;;;;;;;;14.30;99.90;;;;;;5017974;28;19920;-82
2021/07/03 01:21:20;;;;;;;;;;;14.30;99.90;;;;;;5035532;28;19928;-81
2021/07/03 01:23:46;;;;;;;;;;;14.30;99.90;;;;;;5033872;28;20015;-80
2021/07/03 01:26:11;;;;;;;;;;;14.30;99.90;;;;;;5010467;28;19923;-81
2021/07/03 01:28:37;;;;;;;;;;;14.20;99.90;;;;;;5016355;28;19963;-82
2021/07/03 01:31:03;;;;;;;;;;;14.30;99.90;;;;;;5033043;28;20223;-81
2021/07/03 01:33:28;;;;;;;;;;;14.30;99.90;;;;;;5033425;28;19923;-81
2021/07/03 01:35:54;;;;;;;;;;;14.30;99.90;;;;;;5033031;28;20011;-81
2021/07/03 01:38:20;;;;;;;;;;;14.20;99.90;;;;;;5035107;28;19939;-82
2021/07/03 01:40:46;;;;;;;;;;;14.10;99.90;;;;;;5034684;28;19917;-82
2021/07/03 01:43:17;;;;;;;;;;;14.10;99.90;;;;;;5033787;28;20024;-79
2021/07/03 01:45:42;;;;;;;;;;;13.90;99.90;;;;;;5009503;28;19921;-78
2021/07/03 01:48:08;;;;;;;;;;;13.90;99.90;;;;;;5034932;28;19917;-82
2021/07/03 01:50:33;;;;;;;;;;;13.80;99.90;;;;;;5033895;28;19909;-82
2021/07/03 01:52:59;;;;;;;;;;;13.80;99.90;;;;;;5034176;28;20282;-81
2021/07/03 01:55:26;;;;;;;;;;;13.80;99.90;;;;;;5033978;28;20268;-82
2021/07/03 01:57:52;;;;;;;;;;;13.70;99.90;;;;;;5034028;28;20342;-82
2021/07/03 02:00:18;;;;;;;;;;;13.60;99.90;;;;;;5034864;28;19920;-83
2021/07/03 02:02:43;;;;;;;;;;;13.50;99.90;;;;;;5035002;28;19920;-82
2021/07/03 02:05:09;;;;;;;;;;;13.50;99.90;;;;;;5034491;28;19919;-83
2021/07/03 02:07:34;;;;;;;;;;;13.50;99.90;;;;;;5034492;28;19922;-82
2021/07/03 02:10:00;;;;;;;;;;;13.50;99.90;;;;;;5032287;28;19924;-82
2021/07/03 02:12:26;;;;;;;;;;;13.50;99.90;;;;;;5034701;28;20358;-82
2021/07/03 02:14:52;;;;;;;;;;;13.60;99.90;;;;;;5034875;28;19921;-82
2021/07/03 02:17:17;;;;;;;;;;;13.60;99.90;;;;;;5033105;28;19920;-83
2021/07/03 02:19:43;;;;;;;;;;;13.60;99.90;;;;;;5032597;28;19909;-83
2021/07/03 02:22:08;;;;;;;;;;;13.60;99.90;;;;;;5034423;28;19913;-83
2021/07/03 02:24:34;;;;;;;;;;;13.50;99.90;;;;;;5032254;28;19917;-82
2021/07/03 02:27:00;;;;;;;;;;;13.50;99.90;;;;;;5033646;28;19956;-82
2021/07/03 02:29:25;;;;;;;;;;;13.50;99.90;;;;;;5033812;28;19976;-81
2021/07/03 02:31:51;;;;;;;;;;;13.50;99.90;;;;;;5032642;28;19917;-83
2021/07/03 02:34:17;;;;;;;;;;;13.40;99.90;;;;;;5030123;28;19945;-78
2021/07/03 02:36:42;;;;;;;;;;;13.50;99.90;;;;;;5033334;28;19913;-78
2021/07/03 02:39:08;;;;;;;;;;;13.50;99.90;;;;;;5034340;28;19916;-82
2021/07/03 02:41:33;;;;;;;;;;;13.50;99.90;;;;;;5034361;28;20255;-82
2021/07/03 02:44:00;;;;;;;;;;;13.60;99.90;;;;;;5032669;28;19913;-83
2021/07/03 02:46:26;;;;;;;;;;;13.70;99.90;;;;;;5033617;28;19913;-83
2021/07/03 02:48:51;;;;;;;;;;;13.70;99.90;;;;;;5034538;28;19939;-82
2021/07/03 02:51:17;;;;;;;;;;;13.70;99.90;;;;;;5032441;28;20316;-82
2021/07/03 02:53:42;;;;;;;;;;;13.80;99.90;;;;;;5033771;28;19940;-77
2021/07/03 02:56:08;;;;;;;;;;;13.80;99.90;;;;;;5032853;28;19924;-82
2021/07/03 02:58:34;;;;;;;;;;;13.90;99.90;;;;;;5034381;28;19940;-83
2021/07/03 03:00:59;;;;;;;;;;;13.90;99.90;;;;;;5014337;28;19967;-82
2021/07/03 03:03:25;;;;;;;;;;;14.00;99.90;;;;;;5034993;28;19913;-83
2021/07/03 03:05:50;;;;;;;;;;;14.00;99.90;;;;;;5028626;28;19967;-83
2021/07/03 03:08:16;;;;;;;;;;;14.00;99.90;;;;;;5033204;28;19963;-82
2021/07/03 03:10:42;;;;;;;;;;;14.10;99.90;;;;;;5030115;28;19924;-83
2021/07/03 03:13:07;;;;;;;;;;;14.00;99.90;;;;;;5034185;28;19925;-83
2021/07/03 03:15:33;;;;;;;;;;;14.10;99.90;;;;;;5033964;28;19992;-82
2021/07/03 03:17:59;;;;;;;;;;;14.10;99.90;;;;;;5032768;28;20637;-82
2021/07/03 03:20:24;;;;;;;;;;;14.10;99.90;;;;;;5032686;28;19917;-82
2021/07/03 03:22:50;;;;;;;;;;;14.20;99.90;;;;;;5035694;28;20000;-82
2021/07/03 03:25:16;;;;;;;;;;;14.20;99.90;;;;;;5038292;28;19966;-83
2021/07/03 03:27:42;;;;;;;;;;;14.20;99.90;;;;;;5037069;28;20527;-80
2021/07/03 03:30:08;;;;;;;;;;;14.20;99.90;;;;;;5038311;28;19949;-83
2021/07/03 03:32:34;;;;;;;;;;;14.30;99.90;;;;;;5036662;28;20618;-83
2021/07/03 03:35:00;;;;;;;;;;;14.30;99.90;;;;;;5036882;28;19920;-82
2021/07/03 03:37:25;;;;;;;;;;;14.30;99.90;;;;;;5037736;28;19963;-83
2021/07/03 03:39:51;;;;;;;;;;;14.40;99.90;;;;;;5035993;28;19927;-84
2021/07/03 03:42:16;;;;;;;;;;;14.40;99.90;;;;;;5037807;28;19920;-83
2021/07/03 03:44:42;;;;;;;;;;;14.40;99.90;;;;;;5037977;28;19917;-82
2021/07/03 03:47:07;;;;;;;;;;;14.50;99.90;;;;;;5036534;28;19917;-83
2021/07/03 03:49:33;;;;;;;;;;;14.50;99.90;;;;;;5019431;28;21132;-82
2021/07/03 03:51:58;;;;;;;;;;;14.60;99.90;;;;;;5016112;28;20621;-83
2021/07/03 03:54:24;;;;;;;;;;;14.60;99.90;;;;;;5032310;28;19913;-82
2021/07/03 03:57:21;;;;;;;;;;;14.60;99.90;;;;;;5022633;28;19945;-82
2021/07/03 03:59:35;;;;;;;;;;;14.70;99.90;;;;;;5024777;28;19971;-82
2021/07/03 04:02:01;;;;;;;;;;;14.70;99.90;;;;;;5037054;28;19952;-82
2021/07/03 04:04:26;;;;;;;;;;;14.70;99.90;;;;;;5037378;28;19917;-82
2021/07/03 04:06:52;;;;;;;;;;;14.70;99.90;;;;;;5029275;28;20239;-81
2021/07/03 04:09:17;;;;;;;;;;;14.70;99.90;;;;;;5036785;28;20363;-84
2021/07/03 04:11:43;;;;;;;;;;;14.70;99.90;;;;;;5033746;28;20331;-77
2021/07/03 04:14:08;;;;;;;;;;;14.70;99.90;;;;;;5028581;28;20251;-83
2021/07/03 04:16:34;;;;;;;;;;;14.80;99.90;;;;;;5033554;28;19945;-83
2021/07/03 04:18:59;;;;;;;;;;;14.80;99.90;;;;;;5019381;28;19913;-83
2021/07/03 04:21:25;;;;;;;;;;;14.80;99.90;;;;;;5018793;28;20004;-82
2021/07/03 04:23:50;;;;;;;;;;;14.80;99.90;;;;;;5037059;28;19944;-83
2021/07/03 04:26:16;;;;;;;;;;;14.90;99.90;;;;;;5019638;28;19959;-82
2021/07/03 04:28:41;;;;;;;;;;;14.90;99.90;;;;;;5036703;28;19913;-83
2021/07/03 04:31:07;;;;;;;;;;;14.90;99.90;;;;;;5035106;28;19915;-82
2021/07/03 04:33:32;;;;;;;;;;;14.90;99.90;;;;;;5034515;28;19917;-79
2021/07/03 04:35:58;;;;;;;;;;;14.90;99.90;;;;;;5035135;28;19948;-82
2021/07/03 04:38:23;;;;;;;;;;;14.80;99.90;;;;;;5035930;28;19924;-82
2021/07/03 04:40:49;;;;;;;;;;;14.80;99.90;;;;;;5032869;28;19982;-83
2021/07/03 04:43:15;;;;;;;;;;;14.80;99.90;;;;;;5035881;28;19982;-82
2021/07/03 04:45:40;;;;;;;;;;;14.90;99.90;;;;;;5036383;28;20004;-82
2021/07/03 04:48:06;;;;;;;;;;;14.90;99.90;;;;;;5035042;28;19913;-82
2021/07/03 04:50:31;;;;;;;;;;;14.90;99.90;;;;;;5031803;28;19971;-82
2021/07/03 04:52:57;;;;;;;;;;;14.90;99.90;;;;;;5035244;28;20312;-82
2021/07/03 04:55:22;;;;;;;;;;;14.90;99.90;;;;;;5035856;28;19920;-82
2021/07/03 04:57:50;;;;;;;;;;;14.90;99.90;;;;;;5034559;28;19924;-82
2021/07/03 05:00:16;;;;;;;;;;;14.90;99.90;;;;;;5035878;28;19913;-82
2021/07/03 05:02:41;;;;;;;;;;;15.00;99.90;;;;;;5036088;28;19917;-80
2021/07/03 05:05:07;;;;;;;;;;;15.10;99.90;;;;;;5035477;28;20362;-82
2021/07/03 05:07:33;;;;;;;;;;;15.20;99.90;;;;;;5036032;28;20350;-78
2021/07/03 05:09:58;;;;;;;;;;;15.30;99.90;;;;;;5010250;28;19952;-81
2021/07/03 05:12:24;;;;;;;;;;;15.40;99.90;;;;;;5022915;28;19928;-81
2021/07/03 05:14:49;;;;;;;;;;;15.40;99.90;;;;;;5034788;28;19960;-82
2021/07/03 05:17:15;;;;;;;;;;;15.50;99.90;;;;;;5024086;28;19917;-82
2021/07/03 05:19:40;;;;;;;;;;;15.60;99.90;;;;;;5035561;28;19943;-82
2021/07/03 05:22:06;;;;;;;;;;;15.70;99.90;;;;;;5034143;28;19921;-81
2021/07/03 05:24:32;;;;;;;;;;;15.80;99.90;;;;;;5034280;28;19927;-82
2021/07/03 05:26:57;;;;;;;;;;;15.90;99.90;;;;;;5029730;28;19936;-82
2021/07/03 05:29:23;;;;;;;;;;;16.00;99.90;;;;;;5035195;28;20285;-82
2021/07/03 05:31:48;;;;;;;;;;;16.10;99.90;;;;;;5033857;28;20577;-83
2021/07/03 05:34:14;;;;;;;;;;;16.20;99.90;;;;;;5017462;28;19917;-83
2021/07/03 05:36:39;;;;;;;;;;;16.30;99.90;;;;;;5034560;28;19927;-82
2021/07/03 05:39:05;;;;;;;;;;;16.40;99.90;;;;;;5035631;28;20000;-80
2021/07/03 05:41:33;;;;;;;;;;;16.40;99.90;;;;;;5035754;28;20421;-81
2021/07/03 05:43:59;;;;;;;;;;;16.50;99.90;;;;;;5033065;28;19920;-82
2021/07/03 05:46:24;;;;;;;;;;;16.50;99.90;;;;;;5033620;28;19970;-81
2021/07/03 05:48:50;;;;;;;;;;;16.60;99.90;;;;;;5035937;28;19913;-81
2021/07/03 05:51:15;;;;;;;;;;;16.70;99.90;;;;;;5034317;28;20266;-81
2021/07/03 05:53:41;;;;;;;;;;;16.80;99.90;;;;;;5034194;28;20317;-82
2021/07/03 05:56:06;;;;;;;;;;;16.80;99.90;;;;;;5033097;28;19928;-82
2021/07/03 05:58:32;;;;;;;;;;;16.90;99.90;;;;;;5033868;28;19924;-80
2021/07/03 06:00:58;;;;;;;;;;;17.00;99.90;;;;;;5015394;28;19916;-81
2021/07/03 06:03:23;;;;;;;;;;;17.00;99.90;;;;;;5034760;28;19936;-82
2021/07/03 06:05:49;;;;;;;;;;;17.00;99.90;;;;;;5034562;28;20035;-81
2021/07/03 06:08:15;;;;;;;;;;;17.10;99.90;;;;;;5033059;28;19955;-81
2021/07/03 06:10:40;;;;;;;;;;;17.10;99.90;;;;;;5034979;28;20015;-82
2021/07/03 06:13:07;;;;;;;;;;;17.10;99.90;;;;;;5034462;28;20259;-81
2021/07/03 06:15:32;;;;;;;;;;;17.10;99.90;;;;;;5033360;28;19944;-82
2021/07/03 06:17:58;;;;;;;;;;;17.20;99.90;;;;;;5034015;28;20296;-81
2021/07/03 06:20:23;;;;;;;;;;;17.20;99.90;;;;;;5033151;28;19914;-80
2021/07/03 06:22:49;;;;;;;;;;;17.20;99.90;;;;;;5014308;28;19914;-82
2021/07/03 06:25:15;;;;;;;;;;;17.30;99.90;;;;;;5019217;28;19921;-83
2021/07/03 06:27:40;;;;;;;;;;;17.30;99.90;;;;;;5034630;28;19928;-82
2021/07/03 06:30:10;;;;;;;;;;;17.30;99.90;;;;;;5013874;28;20347;-82
2021/07/03 06:32:36;;;;;;;;;;;17.40;99.90;;;;;;5028488;28;19935;-82
2021/07/03 06:35:01;;;;;;;;;;;17.40;99.90;;;;;;5034427;28;20293;-83
2021/07/03 06:37:27;;;;;;;;;;;17.40;99.90;;;;;;5014902;28;19917;-81
2021/07/03 06:39:52;;;;;;;;;;;17.50;99.90;;;;;;5028751;28;19913;-79
2021/07/03 06:42:19;;;;;;;;;;;17.60;99.90;;;;;;5027036;28;19913;-82
2021/07/03 06:44:45;;;;;;;;;;;17.60;99.90;;;;;;5033631;28;19924;-82
2021/07/03 06:47:14;;;;;;;;;;;17.60;99.90;;;;;;5015052;28;19909;-83
2021/07/03 06:49:40;;;;;;;;;;;17.70;99.90;;;;;;5030821;28;19917;-81
2021/07/03 06:52:07;;;;;;;;;;;17.80;99.90;;;;;;5025687;28;19953;-81
2021/07/03 06:54:33;;;;;;;;;;;17.80;99.90;;;;;;5022139;28;19932;-82
2021/07/03 06:56:58;;;;;;;;;;;17.80;99.90;;;;;;5039641;28;19929;-82
2021/07/03 06:59:27;;;;;;;;;;;17.90;99.90;;;;;;5041291;28;19913;-81
2021/07/03 07:01:53;;;;;;;;;;;17.90;99.90;;;;;;5036269;28;19932;-83
2021/07/03 07:04:20;;;;;;;;;;;18.00;99.90;;;;;;5039979;28;19913;-84
2021/07/03 07:06:49;;;;;;;;;;;18.10;99.90;;;;;;5026540;28;19959;-82
2021/07/03 07:09:15;;;;;;;;;;;18.10;99.90;;;;;;5041096;28;19924;-83
2021/07/03 07:11:41;;;;;;;;;;;18.30;99.90;;;;;;5040792;28;19909;-82
2021/07/03 07:14:06;;;;;;;;;;;18.30;99.90;;;;;;5023389;28;19909;-81
2021/07/03 07:16:33;;;;;;;;;;;18.40;99.90;;;;;;5036714;28;19918;-86
2021/07/03 07:18:58;;;;;;;;;;;18.60;99.90;;;;;;5023571;28;19913;-84
2021/07/03 07:21:24;;;;;;;;;;;18.70;99.90;;;;;;5030984;28;19921;-81
2021/07/03 07:23:50;;;;;;;;;;;18.80;99.90;;;;;;5036229;28;19913;-84
2021/07/03 07:26:15;;;;;;;;;;;19.00;99.90;;;;;;5039803;28;20000;-83
2021/07/03 07:28:41;;;;;;;;;;;19.10;99.90;;;;;;5028326;28;20297;-83
2021/07/03 07:31:06;;;;;;;;;;;19.30;99.90;;;;;;5039759;28;19916;-83
2021/07/03 07:33:32;;;;;;;;;;;19.30;99.90;;;;;;5037883;28;19921;-83
2021/07/03 07:35:57;;;;;;;;;;;19.50;99.90;;;;;;5012052;28;19917;-84
2021/07/03 07:38:23;;;;;;;;;;;19.60;99.90;;;;;;5040862;28;20261;-82
2021/07/03 07:40:48;;;;;;;;;;;19.70;99.90;;;;;;5022825;28;20020;-81
2021/07/03 07:43:14;;;;;;;;;;;19.80;99.90;;;;;;5041001;28;20304;-81
2021/07/03 07:45:40;;;;;;;;;;;19.90;99.90;;;;;;5039316;28;20304;-83
2021/07/03 07:48:05;;;;;;;;;;;20.10;99.90;;;;;;5038893;28;19920;-82
2021/07/03 07:50:31;;;;;;;;;;;20.20;99.90;;;;;;5022298;28;19913;-82
2021/07/03 07:52:56;;;;;;;;;;;20.30;99.90;;;;;;5037986;28;19940;-81
2021/07/03 07:55:22;;;;;;;;;;;20.50;99.90;;;;;;5018888;28;19917;-82
2021/07/03 07:57:47;;;;;;;;;;;20.60;99.90;;;;;;5014955;28;19917;-81
2021/07/03 08:00:16;;;;;;;;;;;20.70;99.90;;;;;;5036963;28;19953;-81
2021/07/03 08:02:42;;;;;;;;;;;20.90;99.90;;;;;;5039329;28;19940;-82
2021/07/03 08:05:07;;;;;;;;;;;21.10;99.90;;;;;;5035880;28;20296;-87
2021/07/03 08:07:33;;;;;;;;;;;21.20;99.90;;;;;;5016512;28;20224;-80
2021/07/03 08:09:59;;;;;;;;;;;21.40;99.90;;;;;;5030242;28;20024;-81
2021/07/03 08:12:24;;;;;;;;;;;21.50;99.90;;;;;;5018705;28;19921;-81
2021/07/03 08:14:50;;;;;;;;;;;21.70;99.90;;;;;;5036256;28;19921;-82
2021/07/03 08:17:15;;;;;;;;;;;21.80;99.90;;;;;;5017043;28;20003;-82
2021/07/03 08:19:41;;;;;;;;;;;21.80;99.90;;;;;;5034852;28;19919;-82
2021/07/03 08:22:06;;;;;;;;;;;21.90;99.90;;;;;;5034963;28;19916;-81
2021/07/03 08:24:32;;;;;;;;;;;22.00;99.90;;;;;;5034800;28;19964;-82
2021/07/03 08:26:58;;;;;;;;;;;22.20;99.90;;;;;;5031705;28;19913;-82
2021/07/03 08:29:24;;;;;;;;;;;22.40;99.90;;;;;;5022965;28;20241;-82
2021/07/03 08:31:50;;;;;;;;;;;22.50;99.90;;;;;;5016880;28;19968;-81
2021/07/03 08:34:16;;;;;;;;;;;22.50;99.90;;;;;;5014396;28;19960;-79
2021/07/03 08:36:41;;;;;;;;;;;22.60;99.90;;;;;;5034202;28;20223;-83
2021/07/03 08:39:07;;;;;;;;;;;22.60;99.90;;;;;;5034622;28;19995;-84
2021/07/03 08:41:34;;;;;;;;;;;22.70;99.90;;;;;;5032847;28;19913;-82
2021/07/03 08:43:59;;;;;;;;;;;22.80;99.90;;;;;;5014354;28;20232;-83
2021/07/03 08:46:25;;;;;;;;;;;22.90;99.90;;;;;;5036414;28;19924;-82
2021/07/03 08:48:52;;;;;;;;;;;23.00;99.90;;;;;;5031936;28;19918;-84
2021/07/03 08:51:17;;;;;;;;;;;23.10;99.90;;;;;;5015997;28;19921;-80
2021/07/03 08:53:43;;;;;;;;;;;23.20;99.90;;;;;;5026467;28;19913;-80
2021/07/03 08:56:08;;;;;;;;;;;23.30;99.90;;;;;;5012067;28;20589;-85
2021/07/03 08:58:34;;;;;;;;;;;23.40;99.90;;;;;;5012754;28;20265;-84
2021/07/03 09:01:02;;;;;;;;;;;23.40;99.90;;;;;;5012553;28;19928;-85
2021/07/03 09:03:28;;;;;;;;;;;23.30;99.90;;;;;;5012243;28;20035;-84
2021/07/03 09:05:55;;;;;;;;;;;23.20;99.90;;;;;;5011756;28;20730;-82
2021/07/03 09:08:22;;;;;;;;;;;23.10;99.90;;;;;;5028401;28;19940;-86
2021/07/03 09:10:48;;;;;;;;;;;23.10;99.90;;;;;;5013357;28;19961;-84
2021/07/03 09:13:14;;;;;;;;;;;23.20;99.90;;;;;;5012365;28;20704;-84
2021/07/03 09:15:41;;;;;;;;;;;23.40;99.90;;;;;;5013929;28;19921;-84
2021/07/03 09:18:07;;;;;;;;;;;23.70;99.90;;;;;;5010615;28;19913;-85
2021/07/03 09:20:51;;;;;;;;;;;23.90;99.90;;;;;;5011809;28;19921;-79
2021/07/03 09:23:18;;;;;;;;;;;24.00;99.90;;;;;;5012883;28;19921;-79
2021/07/03 09:25:44;;;;;;;;;;;24.10;99.90;;;;;;5011246;28;19922;-80
2021/07/03 09:28:30;;;;;;;;;;;24.00;99.90;;;;;;5017822;28;20220;-80
2021/07/03 09:30:56;;;;;;;;;;;23.80;99.90;;;;;;5009307;28;21111;-80
2021/07/03 09:33:27;;;;;;;;;;;23.60;99.90;;;;;;5010663;28;19926;-81
2021/07/03 09:36:13;;;;;;;;;;;23.60;99.90;;;;;;5011404;28;20386;-81
2021/07/03 09:38:42;;;;;;;;;;;23.70;99.90;;;;;;5010923;28;19922;-83
2021/07/03 09:41:32;;;;;;;;;;;23.70;99.90;;;;;;5026622;28;19975;-83
2021/07/03 09:43:59;;;;;;;;;;;23.60;99.90;;;;;;5027790;28;19921;-81
2021/07/03 09:46:25;;;;;;;;;;;23.60;99.90;;;;;;5026493;28;20004;-82
2021/07/03 09:48:51;;;;;;;;;;;23.40;99.90;;;;;;5029101;28;19968;-83
2021/07/03 09:51:17;;;;;;;;;;;23.40;99.90;;;;;;5024514;28;19931;-85
2021/07/03 09:53:42;;;;;;;;;;;23.30;99.90;;;;;;5011781;28;19925;-83
2021/07/03 09:56:10;;;;;;;;;;;23.30;99.90;;;;;;5007384;28;19922;-84
2021/07/03 09:58:36;;;;;;;;;;;23.30;99.90;;;;;;5025533;28;19921;-84
2021/07/03 10:01:02;;;;;;;;;;;23.40;99.90;;;;;;5012076;28;19921;-85
2021/07/03 10:03:27;;;;;;;;;;;23.40;99.90;;;;;;5028883;28;20008;-90
2021/07/03 10:05:54;;;;;;;;;;;23.50;99.90;;;;;;5014265;28;19920;-85
2021/07/03 10:08:21;;;;;;;;;;;23.50;99.90;;;;;;5012244;28;19945;-88
2021/07/03 10:10:52;;;;;;;;;;;23.50;99.90;;;;;;5014813;28;19991;-87
2021/07/03 10:13:19;;;;;;;;;;;23.40;99.90;;;;;;5012688;28;20815;-86
2021/07/03 10:15:45;;;;;;;;;;;23.40;99.90;;;;;;5013264;28;19960;-86
2021/07/03 10:18:15;;;;;;;;;;;23.30;99.90;;;;;;5028109;28;20284;-86
2021/07/03 10:20:42;;;;;;;;;;;23.30;99.90;;;;;;5013273;28;20307;-86
2021/07/03 10:23:08;;;;;;;;;;;23.30;99.90;;;;;;5013028;28;19944;-86
2021/07/03 10:25:38;;;;;;;;;;;23.30;99.90;;;;;;5017018;28;20383;-87
2021/07/03 10:28:15;;;;;;;;;;;23.30;99.90;;;;;;5026265;28;19924;-85
2021/07/03 10:30:41;;;;;;;;;;;23.30;99.90;;;;;;5015794;28;20215;-86
2021/07/03 10:33:12;;;;;;;;;;;23.30;99.90;;;;;;5012473;28;19953;-86
2021/07/03 10:35:42;;;;;;;;;;;23.30;99.90;;;;;;5018846;28;20300;-88
2021/07/03 10:38:14;;;;;;;;;;;23.30;99.90;;;;;;5015929;28;19964;-86
2021/07/03 10:40:40;;;;;;;;;;;23.30;99.90;;;;;;5019162;28;19909;-86
2021/07/03 10:43:06;;;;;;;;;;;23.30;99.90;;;;;;5015681;28;19917;-86
2021/07/03 10:45:42;;;;;;;;;;;23.30;99.90;;;;;;5011563;28;20224;-87
2021/07/03 10:48:13;;;;;;;;;;;23.30;99.90;;;;;;5002047;28;20020;-88
2021/07/03 10:50:38;;;;;;;;;;;23.30;99.90;;;;;;5015742;28;20235;-87
2021/07/03 10:53:04;;;;;;;;;;;23.30;99.90;;;;;;5015667;28;19918;-86
2021/07/03 10:55:30;;;;;;;;;;;23.30;99.90;;;;;;5015302;28;19913;-85
2021/07/03 10:57:56;;;;;;;;;;;23.30;99.90;;;;;;5030529;28;19948;-85
2021/07/03 11:00:23;;;;;;;;;;;23.30;99.90;;;;;;5035278;28;19913;-85
2021/07/03 11:02:49;;;;;;;;;;;23.30;99.90;;;;;;5034606;28;19924;-85
2021/07/03 11:05:15;;;;;;;;;;;23.30;99.90;;;;;;5034289;28;19916;-88
2021/07/03 11:07:42;;;;;;;;;;;23.40;99.90;;;;;;5028381;28;19913;-85
2021/07/03 11:10:08;;;;;;;;;;;23.40;99.90;;;;;;5033659;28;19945;-84
2021/07/03 11:12:44;;;;;;;;;;;23.40;99.90;;;;;;5034559;28;19967;-86
2021/07/03 11:15:11;;;;;;;;;;;23.40;99.90;;;;;;5037381;28;19963;-84
2021/07/03 11:17:37;;;;;;;;;;;23.40;99.90;;;;;;5035165;28;19916;-86
2021/07/03 11:20:03;;;;;;;;;;;23.40;99.90;;;;;;5017429;28;20263;-81
2021/07/03 11:22:28;;;;;;;;;;;23.40;99.90;;;;;;5034029;28;19945;-86
2021/07/03 11:24:55;;;;;;;;;;;23.40;99.90;;;;;;5017384;28;19909;-84
2021/07/03 11:27:25;;;;;;;;;;;23.40;99.90;;;;;;5033996;28;19959;-85
2021/07/03 11:29:51;;;;;;;;;;;23.50;99.90;;;;;;5034864;28;19917;-86
2021/07/03 11:32:16;;;;;;;;;;;23.60;99.90;;;;;;5033122;28;20370;-86
2021/07/03 11:34:50;;;;;;;;;;;23.70;99.90;;;;;;5035419;28;19917;-86
2021/07/03 11:37:23;;;;;;;;;;;24.00;99.90;;;;;;5018582;28;19913;-86
2021/07/03 11:39:55;;;;;;;;;;;24.40;99.90;;;;;;5033865;28;20353;-87
2021/07/03 11:42:26;;;;;;;;;;;24.70;99.90;;;;;;5036500;28;19913;-85
2021/07/03 11:44:52;;;;;;;;;;;24.90;99.90;;;;;;5045144;28;19914;-80
2021/07/03 11:47:18;;;;;;;;;;;25.00;99.90;;;;;;5038629;28;19909;-86
2021/07/03 11:49:43;;;;;;;;;;;25.00;99.90;;;;;;5030512;28;20522;-83
2021/07/03 11:52:09;;;;;;;;;;;25.10;99.90;;;;;;5016887;28;19966;-84
2021/07/03 11:54:34;;;;;;;;;;;25.20;99.90;;;;;;5016234;28;20004;-80
2021/07/03 11:57:00;;;;;;;;;;;25.00;99.90;;;;;;5037781;28;19967;-84
2021/07/03 11:59:27;;;;;;;;;;;25.00;99.90;;;;;;5020317;28;20327;-83
2021/07/03 12:01:53;;;;;;;;;;;24.90;99.90;;;;;;5036518;28;19920;-82
2021/07/03 12:04:18;;;;;;;;;;;24.80;99.90;;;;;;5035114;28;19913;-84
2021/07/03 12:06:44;;;;;;;;;;;24.70;99.90;;;;;;5035957;28;19917;-83
2021/07/03 12:09:13;;;;;;;;;;;24.60;99.90;;;;;;5037670;28;19916;-81
2021/07/03 12:11:39;;;;;;;;;;;24.40;99.90;;;;;;5024865;28;19910;-85
2021/07/03 12:14:12;;;;;;;;;;;24.20;99.90;;;;;;5038337;28;19921;-83
2021/07/03 12:16:37;;;;;;;;;;;24.10;99.90;;;;;;5036616;28;19920;-84
2021/07/03 12:19:03;;;;;;;;;;;23.90;99.90;;;;;;5019756;28;19913;-80
2021/07/03 12:21:34;;;;;;;;;;;23.80;99.90;;;;;;5022805;28;19959;-86
2021/07/03 12:24:07;;;;;;;;;;;23.60;99.90;;;;;;5016058;28;19936;-85
2021/07/03 12:26:33;;;;;;;;;;;23.50;99.90;;;;;;5034077;28;19917;-84
2021/07/03 12:29:01;;;;;;;;;;;23.40;99.90;;;;;;5039018;28;19921;-85
2021/07/03 12:31:34;;;;;;;;;;;23.40;99.90;;;;;;5038918;28;19913;-85
2021/07/03 12:34:00;;;;;;;;;;;23.30;99.90;;;;;;5037476;28;20205;-85
2021/07/03 12:36:26;;;;;;;;;;;23.30;99.90;;;;;;5037100;28;19910;-85
2021/07/03 12:39:01;;;;;;;;;;;23.30;99.90;;;;;;5020173;28;19975;-85
2021/07/03 12:41:26;;;;;;;;;;;23.20;99.90;;;;;;5036114;28;19984;-85
2021/07/03 12:43:53;;;;;;;;;;;23.20;99.90;;;;;;5020115;28;20278;-85
2021/07/03 12:46:27;;;;;;;;;;;23.10;99.90;;;;;;5021851;28;19909;-85
2021/07/03 12:48:53;;;;;;;;;;;23.20;99.90;;;;;;5036633;28;20335;-79
2021/07/03 12:51:19;;;;;;;;;;;23.10;99.90;;;;;;5035257;28;19913;-86
2021/07/03 12:53:45;;;;;;;;;;;23.20;99.90;;;;;;5034931;28;19990;-86
2021/07/03 12:56:10;;;;;;;;;;;23.10;99.90;;;;;;5033918;28;19917;-84
2021/07/03 12:58:36;;;;;;;;;;;23.20;99.90;;;;;;5035461;28;19913;-85
2021/07/03 13:01:03;;;;;;;;;;;23.20;99.90;;;;;;5021313;28;19991;-85
2021/07/03 13:03:28;;;;;;;;;;;23.20;99.90;;;;;;5014599;28;19929;-86
2021/07/03 13:05:57;;;;;;;;;;;23.20;99.90;;;;;;5018571;28;20047;-87
2021/07/03 13:08:23;;;;;;;;;;;23.30;99.90;;;;;;5033474;28;19914;-87
2021/07/03 13:10:48;;;;;;;;;;;23.30;99.90;;;;;;5037431;28;19921;-86
2021/07/03 13:13:14;;;;;;;;;;;23.40;99.90;;;;;;5036714;28;19928;-85
2021/07/03 13:15:39;;;;;;;;;;;23.40;99.90;;;;;;5033746;28;20255;-85
2021/07/03 13:18:05;;;;;;;;;;;23.50;99.90;;;;;;5035495;28;20270;-86
2021/07/03 13:20:31;;;;;;;;;;;23.50;99.90;;;;;;5035043;28;20280;-82
2021/07/03 13:22:57;;;;;;;;;;;23.60;99.90;;;;;;5027827;28;20003;-81
2021/07/03 13:25:22;;;;;;;;;;;23.60;99.90;;;;;;5033369;28;19967;-82
2021/07/03 13:27:48;;;;;;;;;;;23.60;99.90;;;;;;5017090;28;20003;-90
2021/07/03 13:30:16;;;;;;;;;;;23.70;99.90;;;;;;5036808;28;19920;-88
2021/07/03 13:32:41;;;;;;;;;;;23.70;99.90;;;;;;5016680;28;19921;-93
2021/07/03 13:35:07;;;;;;;;;;;23.70;99.90;;;;;;5037734;28;19995;-90
2021/07/03 13:37:33;;;;;;;;;;;23.80;99.90;;;;;;5037588;28;20296;-83
2021/07/03 13:39:58;;;;;;;;;;;23.90;99.90;;;;;;5037637;28;19952;-88
2021/07/03 13:42:25;;;;;;;;;;;23.90;99.90;;;;;;5016917;28;19916;-88
2021/07/03 13:44:50;;;;;;;;;;;23.90;99.90;;;;;;5017970;28;20220;-87
2021/07/03 13:47:16;;;;;;;;;;;23.90;99.90;;;;;;5022662;28;19913;-87
2021/07/03 13:49:42;;;;;;;;;;;23.90;99.90;;;;;;5018272;28;20376;-90
2021/07/03 13:52:07;;;;;;;;;;;23.90;99.90;;;;;;5023872;28;19909;-87
2021/07/03 13:54:33;;;;;;;;;;;23.80;99.90;;;;;;5035561;28;19917;-80
2021/07/03 13:56:59;;;;;;;;;;;23.70;99.90;;;;;;5035576;28;19936;-84
2021/07/03 13:59:25;;;;;;;;;;;23.70;99.90;;;;;;5029537;28;19921;-84
2021/07/03 14:01:50;;;;;;;;;;;23.70;99.90;;;;;;5036146;28;19916;-88
2021/07/03 14:04:16;;;;;;;;;;;23.70;99.90;;;;;;5023683;28;19909;-89
2021/07/03 14:06:41;;;;;;;;;;;23.80;99.90;;;;;;5034063;28;20263;-85
2021/07/03 14:09:07;;;;;;;;;;;23.70;99.90;;;;;;5020451;28;19940;-86
2021/07/03 14:11:33;;;;;;;;;;;23.60;99.90;;;;;;5031231;28;20228;-85